This demonstration page uses our WeatherBlox Daily Observations layout. Learn more.

38.88101, -77.10428

Hourly Observations for June 25, 2017

Temp ( °F °C ) Dew Point ( °F °C ) Humidity (%) Winds ( mph kmh ) Pressure ( in mb ) Visibility ( mi km ) Precip ( " mm )
12:52 am 00:52 Mostly Clear 74 23.3 65 18.3 74 74 N 8 13 29.94 1014 10 16.09344 0 0
1:52 am 01:52 Partly Cloudy 79 26.1 57 13.9 47 47 WNW 6 9 29.94 1014 10 16.09344 0 0
2:52 am 02:52 Mostly Clear 77 25 58 14.4 52 52 NW 8 13 29.94 1014 10 16.09344 0 0
3:52 am 03:52 Partly Cloudy 73 22.8 61 16.1 66 66 N 7 11 29.94 1014 10 16.09344 0 0
4:52 am 04:52 Mostly Cloudy 73 22.8 61 16.1 66 66 N 6 9 29.97 1015 10 16.09344 0 0
5:52 am 05:52 Mostly Cloudy 72 22.2 61 16.1 68 68 Calm 29.97 1015 10 16.09344 0 0
6:52 am 06:52 Mostly Cloudy 75 23.9 61 16.1 62 62 NNW 6 9 30 1016 10 16.09344 0 0
7:52 am 07:52 Mostly Cloudy 77 25 60 15.6 56 56 NNW 8 13 30 1016 10 16.09344 0 0
8:52 am 08:52 Mostly Cloudy 78 25.6 59 15 52 52 NW 10 17 30.03 1017 10 16.09344 0 0
9:52 am 09:52 Mostly Cloudy 79 26.1 60 15.6 52 52 N 13 20 30.03 1017 10 16.09344 0 0
10:52 am 10:52 Mostly Cloudy 82 27.8 60 15.6 47 47 NW 7 11 30.03 1017 10 16.09344 0 0
11:52 am 11:52 Mostly Cloudy 83 28.3 57 13.9 41 41 WNW 9 15 30.03 1017 10 16.09344 0 0
12:52 pm 12:52 Mostly Cloudy 85 29.4 59 15 42 42 NW 14 22 30 1016 10 16.09344 0 0
1:52 pm 13:52 Mostly Cloudy 84 28.9 58 14.4 41 41 NW 12 19 30 1016 10 16.09344 0 0
2:52 pm 14:52 Mostly Cloudy 87 30.6 57 13.9 36 36 NW 10 17 29.97 1015 10 16.09344 0 0
3:52 pm 15:52 Mostly Cloudy 87 30.6 53 11.7 31 31 WSW 5 7 29.97 1015 10 16.09344 0 0
4:52 pm 16:52 Mostly Cloudy 87 30.6 51 10.6 29 29 NW 10 17 29.97 1015 10 16.09344 0 0
5:52 pm 17:52 Mostly Cloudy 85 29.4 49 9.4 29 29 WNW 15 24 29.97 1015 10 16.09344 0 0
6:39 pm 18:39 Mostly Cloudy 84 28.9 48 8.9 29 29 NNW 18 30 30 1016 10 16.09344 0 0
6:52 pm 18:52 Mostly Cloudy 84 28.9 46 7.8 27 27 NW 18 30 29.97 1015 10 16.09344 0 0
7:52 pm 19:52 Partly Cloudy 82 27.8 46 7.8 28 28 NNW 16 26 30 1016 10 16.09344 0 0
8:52 pm 20:52 Mostly Cloudy 79 26.1 46 7.8 31 31 NW 10 17 30 1016 10 16.09344 0 0
9:52 pm 21:52 Mostly Cloudy 78 25.6 46 7.8 32 32 NNW 8 13 30.03 1017 10 16.09344 0 0
10:52 pm 22:52 Mostly Clear 76 24.4 46 7.8 35 35 N 5 7 30.03 1017 10 16.09344 0 0
11:52 pm 23:52 Mostly Clear 76 24.4 45 7.2 33 33 WNW 8 13 30.03 1017 10 16.09344 0 0

Powered by AerisWeather